createdAt,value
2023-03-18T00:04:09.522Z,98440.66
2023-03-18T00:09:18.915Z,98439.38
2023-03-18T00:14:23.922Z,98437.47
2023-03-18T00:19:29.642Z,98430.88
2023-03-18T00:24:37.208Z,98430.44
2023-03-18T00:29:44.001Z,98419.59
2023-03-18T00:34:53.182Z,98421.94
2023-03-18T00:40:05.994Z,98429.75
2023-03-18T00:45:13.848Z,98428.09
2023-03-18T00:50:20.504Z,98428.53
2023-03-18T00:55:29.132Z,98421.75
2023-03-18T01:00:36.157Z,98422.72
2023-03-18T01:05:45.484Z,98422.06
2023-03-18T01:10:53.289Z,98416.88
2023-03-18T01:15:58.824Z,98417.00
2023-03-18T01:21:04.123Z,98404.78
2023-03-18T01:26:16.874Z,98401.63
2023-03-18T01:31:28.904Z,98390.91
2023-03-18T01:36:38.824Z,98398.56
2023-03-18T01:41:50.463Z,98394.91
2023-03-18T01:47:04.927Z,98397.25
2023-03-18T01:52:16.464Z,98384.75
2023-03-18T01:57:28.398Z,98387.03
2023-03-18T02:02:35.088Z,98392.03
2023-03-18T02:07:43.045Z,98392.63
2023-03-18T02:12:54.154Z,98384.19
2023-03-18T02:18:10.852Z,98383.34
2023-03-18T02:23:29.654Z,98395.75
2023-03-18T02:28:40.276Z,98412.78
2023-03-18T02:33:49.154Z,98407.50
2023-03-18T02:38:58.284Z,98398.88
2023-03-18T02:44:07.420Z,98410.06
2023-03-18T02:49:24.813Z,98412.91
2023-03-18T02:54:32.988Z,98421.19
2023-03-18T02:59:40.526Z,98429.13
2023-03-18T03:04:50.465Z,98422.09
2023-03-18T03:10:00.444Z,98439.28
2023-03-18T03:15:10.821Z,98435.66
2023-03-18T03:20:26.110Z,98453.66
2023-03-18T03:25:31.534Z,98448.06
2023-03-18T03:30:40.405Z,98445.31
2023-03-18T03:35:55.521Z,98451.38
2023-03-18T03:41:05.198Z,98451.19
2023-03-18T03:46:16.822Z,98460.72
2023-03-18T03:51:24.678Z,98461.50
2023-03-18T03:56:31.669Z,98470.19
2023-03-18T04:01:41.271Z,98482.47
2023-03-18T04:06:46.617Z,98471.78
2023-03-18T04:11:57.391Z,98475.81
2023-03-18T04:17:05.217Z,98492.03
2023-03-18T04:22:11.593Z,98497.63
2023-03-18T04:27:18.535Z,98497.06
2023-03-18T04:32:26.418Z,98497.06
2023-03-18T04:37:31.828Z,98486.84
2023-03-18T04:42:38.972Z,98495.88
2023-03-18T04:47:49.524Z,98502.25
2023-03-18T04:52:57.200Z,98500.16
2023-03-18T04:58:07.202Z,98497.84
2023-03-18T05:03:21.324Z,98517.63
2023-03-18T05:08:28.045Z,98509.25
2023-03-18T05:13:35.390Z,98505.81
2023-03-18T05:18:46.386Z,98505.34
2023-03-18T05:23:52.131Z,98505.28
2023-03-18T05:29:00.221Z,98508.28
2023-03-18T05:34:17.566Z,98508.72
2023-03-18T05:39:25.310Z,98508.94
2023-03-18T05:44:35.622Z,98516.38
2023-03-18T05:49:45.724Z,98522.44
2023-03-18T05:54:55.974Z,98516.13
2023-03-18T06:00:07.008Z,98537.53
2023-03-18T06:05:27.281Z,98530.59
2023-03-18T06:10:32.544Z,98534.63
2023-03-18T06:15:41.929Z,98531.59
2023-03-18T06:21:01.488Z,98534.38
2023-03-18T06:26:08.849Z,98529.78
2023-03-18T06:31:24.545Z,98539.28
2023-03-18T06:36:33.639Z,98546.25
2023-03-18T06:41:41.859Z,98541.47
2023-03-18T06:47:16.837Z,98538.22
2023-03-18T06:52:35.143Z,98545.66
2023-03-18T06:57:49.690Z,98553.97
2023-03-18T07:03:06.762Z,98552.75
2023-03-18T07:08:19.008Z,98564.69
2023-03-18T07:13:25.278Z,98554.81
2023-03-18T07:18:31.149Z,98549.69
2023-03-18T07:23:41.276Z,98552.75
2023-03-18T07:28:53.542Z,98567.66
2023-03-18T07:33:59.311Z,98564.31
2023-03-18T07:39:07.296Z,98539.53
2023-03-18T07:44:13.075Z,98544.81
2023-03-18T07:49:18.611Z,98550.97
2023-03-18T07:54:27.354Z,98549.09
2023-03-18T07:59:35.835Z,98553.88
2023-03-18T08:04:42.561Z,98551.25
2023-03-18T08:09:53.492Z,98549.88
2023-03-18T08:14:59.983Z,98552.22
2023-03-18T08:20:06.338Z,98562.41
2023-03-18T08:25:14.602Z,98567.44
2023-03-18T08:30:20.560Z,98560.63
2023-03-18T08:35:26.670Z,98560.09
2023-03-18T08:40:34.906Z,98570.25
2023-03-18T08:45:45.068Z,98561.31
2023-03-18T08:50:50.093Z,98564.84
2023-03-18T08:56:03.262Z,98554.81
2023-03-18T09:01:10.777Z,98567.81
2023-03-18T09:06:19.926Z,98566.94
2023-03-18T09:11:29.787Z,98578.72
2023-03-18T09:16:38.099Z,98574.47
2023-03-18T09:21:49.199Z,98560.97
2023-03-18T09:26:56.857Z,98566.06
2023-03-18T09:32:01.968Z,98564.06
2023-03-18T09:37:13.114Z,98566.47
2023-03-18T09:42:47.951Z,98572.13
2023-03-18T09:48:12.704Z,98572.00
2023-03-18T09:53:25.056Z,98587.34
2023-03-18T09:58:51.692Z,98576.72
2023-03-18T10:04:04.735Z,98588.44
2023-03-18T10:09:17.092Z,98571.34
2023-03-18T10:14:45.479Z,98569.47
2023-03-18T10:19:54.764Z,98571.19
2023-03-18T10:25:10.246Z,98577.97
2023-03-18T10:30:34.582Z,98579.94
2023-03-18T10:35:46.536Z,98578.56
2023-03-18T10:40:51.824Z,98578.91
2023-03-18T10:46:04.630Z,98579.78
2023-03-18T10:51:18.715Z,98589.03
2023-03-18T10:56:23.996Z,98577.78
2023-03-18T11:01:32.365Z,98563.47
2023-03-18T11:06:45.373Z,98575.03
2023-03-18T11:11:51.837Z,98574.72
2023-03-18T11:17:04.635Z,98575.03
2023-03-18T11:22:22.667Z,98580.81
2023-03-18T11:27:32.457Z,98581.63
2023-03-18T11:32:42.467Z,98584.25
2023-03-18T11:37:52.441Z,98578.38
2023-03-18T11:43:00.270Z,98587.09
2023-03-18T11:48:15.413Z,98584.56
2023-03-18T11:53:29.127Z,98580.59
2023-03-18T11:58:53.687Z,98581.28
2023-03-18T12:04:25.570Z,98576.31
2023-03-18T12:09:42.405Z,98569.84
2023-03-18T12:14:53.954Z,98578.84
2023-03-18T12:20:33.520Z,98569.03
2023-03-18T12:26:00.036Z,98569.59
2023-03-18T12:31:15.762Z,98576.63
2023-03-18T12:36:35.357Z,98571.31
2023-03-18T12:41:53.389Z,98562.25
2023-03-18T12:47:06.829Z,98567.03
2023-03-18T12:52:31.955Z,98556.81
2023-03-18T12:57:48.709Z,98563.88
2023-03-18T13:03:07.739Z,98561.44
2023-03-18T13:08:40.810Z,98548.72
2023-03-18T13:13:53.280Z,98546.84
2023-03-18T13:19:04.607Z,98545.47
2023-03-18T13:24:34.671Z,98547.72
2023-03-18T13:29:52.430Z,98556.13
2023-03-18T13:35:19.870Z,98556.66
2023-03-18T13:40:46.550Z,98549.03
2023-03-18T13:45:54.002Z,98545.19
2023-03-18T13:51:01.196Z,98530.56
2023-03-18T13:56:29.012Z,98533.06
2023-03-18T14:01:37.969Z,98526.50
2023-03-18T14:06:54.392Z,98524.31
2023-03-18T14:12:07.149Z,98521.03
2023-03-18T14:17:25.792Z,98520.56
2023-03-18T14:22:38.035Z,98519.66
2023-03-18T14:27:54.961Z,98517.59
2023-03-18T14:33:03.419Z,98519.94
2023-03-18T14:38:15.347Z,98517.03
2023-03-18T14:43:30.086Z,98524.16
2023-03-18T14:48:36.916Z,98511.53
2023-03-18T14:53:48.173Z,98513.34
2023-03-18T14:58:57.803Z,98513.47
2023-03-18T15:04:04.600Z,98515.69
2023-03-18T15:09:13.393Z,98516.66
2023-03-18T15:14:27.005Z,98513.19
2023-03-18T15:19:35.625Z,98515.28
2023-03-18T15:24:41.002Z,98521.38
2023-03-18T15:29:55.966Z,98515.81
2023-03-18T15:35:10.485Z,98515.75
2023-03-18T15:40:36.437Z,98525.97
2023-03-18T15:45:49.303Z,98528.25
2023-03-18T15:50:56.273Z,98531.72
2023-03-18T15:56:09.919Z,98535.25
2023-03-18T16:01:21.420Z,98542.13
2023-03-18T16:06:26.958Z,98547.22
2023-03-18T16:11:32.147Z,98552.06
2023-03-18T16:16:40.010Z,98547.53
2023-03-18T16:21:45.767Z,98561.84
2023-03-18T16:26:55.187Z,98553.94
2023-03-18T16:32:06.712Z,98558.94
2023-03-18T16:37:21.060Z,98566.84
2023-03-18T16:42:27.595Z,98565.09
2023-03-18T16:47:40.122Z,98566.34
2023-03-18T16:52:45.374Z,98572.78
2023-03-18T16:57:52.839Z,98563.38
2023-03-18T17:03:01.100Z,98573.25
2023-03-18T17:08:06.427Z,98573.09
2023-03-18T17:13:19.975Z,98586.06
2023-03-18T17:18:28.568Z,98597.31
2023-03-18T17:23:34.664Z,98600.88
2023-03-18T17:28:43.275Z,98602.94
2023-03-18T17:33:51.438Z,98608.53
2023-03-18T17:38:58.954Z,98603.50
2023-03-18T17:44:03.938Z,98608.63
2023-03-18T17:49:15.725Z,98610.66
2023-03-18T17:54:24.450Z,98609.63
2023-03-18T17:59:32.178Z,98620.38
2023-03-18T18:04:42.855Z,98617.75
2023-03-18T18:09:52.087Z,98613.66
2023-03-18T18:14:57.332Z,98604.94
2023-03-18T18:20:07.136Z,98604.41
2023-03-18T18:25:19.973Z,98612.34
2023-03-18T18:30:28.624Z,98613.78
2023-03-18T18:35:36.570Z,98606.13
2023-03-18T18:40:43.854Z,98603.72
2023-03-18T18:45:49.169Z,98609.56
2023-03-18T18:51:00.164Z,98603.34
2023-03-18T18:56:15.564Z,98610.25
2023-03-18T19:01:23.377Z,98609.38
2023-03-18T19:06:33.460Z,98603.78
2023-03-18T19:11:48.470Z,98601.22
2023-03-18T19:16:54.456Z,98595.97
2023-03-18T19:22:10.318Z,98599.84
2023-03-18T19:27:21.965Z,98602.41
2023-03-18T19:32:31.691Z,98602.13
2023-03-18T19:37:44.831Z,98599.47
2023-03-18T19:42:50.241Z,98603.63
2023-03-18T19:47:57.430Z,98612.16
2023-03-18T19:53:15.154Z,98618.66
2023-03-18T19:58:30.405Z,98609.81
2023-03-18T20:03:36.093Z,98613.03
2023-03-18T20:08:46.219Z,98619.03
2023-03-18T20:13:56.370Z,98629.56
2023-03-18T20:19:03.394Z,98622.56
2023-03-18T20:24:19.916Z,98618.84
2023-03-18T20:29:29.875Z,98617.16
2023-03-18T20:34:38.514Z,98612.75
2023-03-18T20:39:46.410Z,98599.75
2023-03-18T20:44:52.663Z,98599.84
2023-03-18T20:49:57.963Z,98614.59
2023-03-18T20:55:08.040Z,98619.81
2023-03-18T21:00:18.913Z,98612.25
2023-03-18T21:05:25.561Z,98602.72
2023-03-18T21:10:34.999Z,98608.31
2023-03-18T21:15:42.768Z,98613.84
2023-03-18T21:20:48.400Z,98618.34
2023-03-18T21:25:57.647Z,98615.22
2023-03-18T21:31:05.312Z,98619.34
2023-03-18T21:36:13.089Z,98616.97
2023-03-18T21:41:27.177Z,98618.44
2023-03-18T21:46:33.658Z,98616.75
2023-03-18T21:51:40.498Z,98613.84
2023-03-18T21:56:51.749Z,98611.94
2023-03-18T22:02:00.445Z,98607.91
2023-03-18T22:07:06.137Z,98607.81
2023-03-18T22:12:19.130Z,98606.53
2023-03-18T22:17:29.750Z,98609.91
2023-03-18T22:22:40.522Z,98622.69
2023-03-18T22:27:50.086Z,98608.31
2023-03-18T22:32:56.394Z,98620.03
2023-03-18T22:38:01.761Z,98620.13
2023-03-18T22:43:21.663Z,98612.56
2023-03-18T22:48:26.838Z,98616.69
2023-03-18T22:53:36.471Z,98613.53
2023-03-18T22:58:54.368Z,98606.53
2023-03-18T23:04:00.454Z,98611.75
2023-03-18T23:09:08.293Z,98597.19
2023-03-18T23:14:19.717Z,98605.75
2023-03-18T23:19:27.332Z,98609.59
2023-03-18T23:24:33.093Z,98604.97
2023-03-18T23:29:43.483Z,98591.09
2023-03-18T23:34:49.767Z,98596.13
2023-03-18T23:39:57.057Z,98597.78
2023-03-18T23:45:07.697Z,98600.44
2023-03-18T23:50:14.554Z,98591.41
2023-03-18T23:55:33.718Z,98601.22
